| time (UTC) | temp C | wind direction | speed KPH | gust KPH | rain 1hr cm | rain 24hr cm | rain mn cm | humidity % | barometer mb |
| 20260510164556 | 15 | 333 | 4.8 | 11.3 | 0.00 | 0.15 | 0.00 | 67 | 1018.2 |
| 20260510163055 | 14 | 281 | 3.2 | 12.9 | 0.00 | 0.15 | 0.00 | 68 | 1018.1 |
| 20260510161547 | 15 | 167 | 3.2 | 14.5 | 0.00 | 0.15 | 0.00 | 68 | 1018.0 |
| 20260510160045 | 14 | 13 | 3.2 | 9.7 | 0.00 | 0.15 | 0.00 | 68 | 1017.8 |
| 20260510154542 | 13 | 288 | 3.2 | 12.9 | 0.00 | 0.15 | 0.00 | 68 | 1017.7 |
| 20260510153036 | 13 | 349 | 3.2 | 11.3 | 0.00 | 0.15 | 0.00 | 69 | 1017.6 |
| 20260510151537 | 13 | 255 | 3.2 | 11.3 | 0.00 | 0.15 | 0.00 | 69 | 1017.5 |
| 20260510150031 | 12 | 240 | 1.6 | 6.4 | 0.00 | 0.15 | 0.00 | 69 | 1017.4 |
| 20260510144535 | 12 | 342 | 1.6 | 8.0 | 0.00 | 0.15 | 0.00 | 69 | 1017.3 |
| 20260510143026 | 12 | 178 | 1.6 | 6.4 | 0.00 | 0.15 | 0.00 | 69 | 1017.2 |
| 20260510141524 | 11 | 15 | 0.0 | 4.8 | 0.00 | 0.15 | 0.00 | 69 | 1017.2 |
| 20260510140017 | 10 | 326 | 1.6 | 11.3 | 0.00 | 0.15 | 0.00 | 70 | 1017.2 |
| 20260510134516 | 10 | 7 | 1.6 | 11.3 | 0.00 | 0.15 | 0.00 | 70 | 1017.1 |
| 20260510133018 | 10 | 344 | 1.6 | 8.0 | 0.00 | 0.15 | 0.00 | 70 | 1016.9 |
| 20260510131517 | 9 | 352 | 3.2 | 11.3 | 0.00 | 0.15 | 0.00 | 70 | 1016.7 |
| 20260510130014 | 9 | 60 | 1.6 | 8.0 | 0.00 | 0.15 | 0.00 | 70 | 1016.7 |
| 20260510124503 | 8 | 21 | 1.6 | 6.4 | 0.00 | 0.15 | 0.00 | 71 | 1016.4 |
| 20260510123002 | 8 | 38 | 3.2 | 11.3 | 0.00 | 0.15 | 0.00 | 71 | 1016.4 |
| 20260510121600 | 7 | 12 | 3.2 | 9.7 | 0.00 | 0.15 | 0.00 | 71 | 1016.4 |
| 20260510120058 | 7 | 7 | 0.0 | 3.2 | 0.00 | 0.15 | 0.00 | 71 | 1016.2 |
| 20260510114553 | 6 | 351 | 0.0 | 4.8 | 0.00 | 0.15 | 0.00 | 70 | 1015.8 |
| 20260510113049 | 5 | 7 | 0.0 | 6.4 | 0.00 | 0.15 | 0.00 | 70 | 1015.6 |
| 20260510111555 | 3 | 341 | 0.0 | 1.6 | 0.00 | 0.15 | 0.00 | 69 | 1015.3 |
| 20260510110044 | 3 | 8 | 0.0 | 0.0 | 0.00 | 0.15 | 0.00 | 68 | 1015.2 |
| 20260510104546 | 2 | 8 | 0.0 | 0.0 | 0.00 | 0.15 | 0.00 | 68 | 1015.0 |
| 20260510103037 | 2 | 8 | 0.0 | 0.0 | 0.00 | 0.15 | 0.00 | 68 | 1014.8 |
| 20260510101533 | 2 | 8 | 0.0 | 0.0 | 0.00 | 0.15 | 0.00 | 68 | 1014.6 |
| 20260510100028 | 3 | 8 | 0.0 | 0.0 | 0.00 | 0.15 | 0.00 | 68 | 1014.4 |
| 20260510094530 | 3 | 8 | 0.0 | 0.0 | 0.00 | 0.15 | 0.00 | 67 | 1014.5 |
| 20260510093021 | 3 | 8 | 0.0 | 0.0 | 0.00 | 0.15 | 0.00 | 67 | 1014.3 |
| 20260510091521 | 3 | 10 | 0.0 | 0.0 | 0.00 | 0.15 | 0.00 | 67 | 1014.0 |
| 20260510090012 | 4 | 10 | 0.0 | 0.0 | 0.00 | 0.15 | 0.00 | 67 | 1013.6 |
| 20260510084504 | 5 | 10 | 0.0 | 0.0 | 0.00 | 0.15 | 0.00 | 67 | 1013.2 |
| 20260510083111 | 5 | 10 | 0.0 | 1.6 | 0.00 | 0.15 | 0.00 | 67 | 1013.0 |
| 20260510081625 | 5 | 14 | 0.0 | 1.6 | 0.00 | 0.15 | 0.00 | 67 | 1012.8 |
| 20260510080051 | 6 | 11 | 0.0 | 1.6 | 0.00 | 0.15 | 0.00 | 67 | 1012.5 |
| 20260510074545 | 6 | 1 | 0.0 | 4.8 | 0.00 | 0.15 | 0.00 | 67 | 1012.2 |
| 20260510073039 | 7 | 23 | 0.0 | 1.6 | 0.00 | 0.15 | 0.00 | 67 | 1011.9 |
| 20260510071535 | 7 | 53 | 1.6 | 6.4 | 0.00 | 0.15 | 0.00 | 67 | 1011.6 |
| 20260510070030 | 7 | 93 | 0.0 | 1.6 | 0.00 | 0.15 | 0.00 | 67 | 1011.4 |
| 20260510064527 | 8 | 57 | 0.0 | 4.8 | 0.00 | 0.15 | 0.00 | 67 | 1011.3 |
| 20260510063020 | 8 | 63 | 0.0 | 3.2 | 0.00 | 0.15 | 0.00 | 67 | 1011.2 |
| 20260510061525 | 9 | 5 | 0.0 | 1.6 | 0.00 | 0.15 | 0.00 | 67 | 1010.9 |
| 20260510060030 | 9 | 8 | 0.0 | 3.2 | 0.00 | 0.15 | 0.00 | 67 | 1010.7 |
| 20260510054507 | 10 | 13 | 0.0 | 1.6 | 0.00 | 0.15 | 0.00 | 67 | 1010.5 |
| 20260510053002 | 10 | 14 | 0.0 | 4.8 | 0.00 | 0.15 | 0.00 | 67 | 1010.2 |
| 20260510051652 | 10 | 359 | 0.0 | 3.2 | 0.00 | 0.15 | 0.00 | 67 | 1010.1 |
| 20260510050054 | 11 | 4 | 0.0 | 4.8 | 0.00 | 0.15 | 0.00 | 67 | 1009.9 |
| 20260510044548 | 11 | 15 | 1.6 | 9.7 | 0.00 | 0.15 | 0.00 | 67 | 1009.6 |
| 20260510043110 | 11 | 6 | 0.0 | 8.0 | 0.00 | 0.15 | 0.00 | 67 | 1009.4 |
| 20260510041541 | 12 | 31 | 3.2 | 9.7 | 0.00 | 0.15 | 0.00 | 67 | 1009.1 |
| 20260510040034 | 12 | 294 | 3.2 | 11.3 | 0.00 | 0.15 | 0.00 | 67 | 1008.9 |
| 20260510034531 | 12 | 38 | 4.8 | 14.5 | 0.00 | 0.15 | 0.15 | 67 | 1008.6 |
| 20260510033028 | 13 | 53 | 6.4 | 16.1 | 0.00 | 0.15 | 0.15 | 68 | 1008.3 |
| 20260510031536 | 13 | 326 | 6.4 | 19.3 | 0.00 | 0.15 | 0.15 | 68 | 1008.1 |
| 20260510030021 | 15 | 346 | 8.0 | 17.7 | 0.00 | 0.15 | 0.15 | 68 | 1007.8 |
| 20260510024519 | 15 | 296 | 6.4 | 14.5 | 0.00 | 0.15 | 0.15 | 68 | 1007.6 |
| 20260510023033 | 15 | 319 | 8.0 | 19.3 | 0.00 | 0.15 | 0.15 | 68 | 1007.1 |
| 20260510021516 | 15 | 288 | 0.0 | 3.2 | 0.00 | 0.15 | 0.15 | 68 | 1006.4 |
| 20260510020013 | 16 | 335 | 0.0 | 0.0 | 0.00 | 0.15 | 0.15 | 68 | 1005.9 |
| 20260510014510 | 16 | 343 | 0.0 | 3.2 | 0.00 | 0.15 | 0.15 | 68 | 1005.6 |
| 20260510013012 | 16 | 313 | 0.0 | 1.6 | 0.00 | 0.15 | 0.15 | 69 | 1005.2 |
| 20260510011512 | 16 | 329 | 0.0 | 3.2 | 0.00 | 0.15 | 0.15 | 69 | 1004.8 |
| 20260510010011 | 17 | 276 | 0.0 | 3.2 | 0.00 | 0.15 | 0.15 | 69 | 1004.6 |
| 20260510004504 | 17 | 316 | 0.0 | 4.8 | 0.00 | 0.15 | 0.15 | 69 | 1004.4 |
| 20260510003107 | 18 | 304 | 1.6 | 6.4 | 0.00 | 0.15 | 0.15 | 69 | 1004.1 |
| 20260510001557 | 18 | 257 | 3.2 | 11.3 | 0.00 | 0.15 | 0.15 | 70 | 1003.9 |
| 20260510000055 | 19 | 300 | 1.6 | 9.7 | 0.00 | 0.15 | 0.15 | 70 | 1003.6 |
| 20260509234553 | 20 | 305 | 3.2 | 11.3 | 0.00 | 0.15 | 0.15 | 70 | 1003.6 |
| 20260509233050 | 20 | 44 | 6.4 | 17.7 | 0.00 | 0.15 | 0.15 | 71 | 1003.5 |
| 20260509231557 | 20 | 120 | 4.8 | 14.5 | 0.00 | 0.15 | 0.15 | 71 | 1003.4 |
| 20260509230045 | 20 | 284 | 9.7 | 25.7 | 0.00 | 0.15 | 0.15 | 71 | 1003.1 |
| 20260509224542 | 21 | 345 | 4.8 | 25.7 | 0.00 | 0.15 | 0.15 | 72 | 1002.8 |
| 20260509223039 | 21 | 277 | 6.4 | 19.3 | 0.00 | 0.15 | 0.15 | 72 | 1002.3 |
| 20260509221538 | 21 | 286 | 3.2 | 14.5 | 0.00 | 0.15 | 0.15 | 72 | 1002.2 |
| 20260509220036 | 21 | 285 | 8.0 | 22.5 | 0.00 | 0.15 | 0.15 | 73 | 1002.0 |
| 20260509214530 | 21 | 292 | 6.4 | 25.7 | 0.00 | 0.15 | 0.15 | 73 | 1001.7 |
| 20260509213029 | 21 | 282 | 4.8 | 22.5 | 0.00 | 0.15 | 0.15 | 74 | 1001.5 |
| 20260509211551 | 21 | 246 | 1.6 | 14.5 | 0.00 | 0.15 | 0.15 | 74 | 1001.5 |
| 20260509210022 | 20 | 264 | 6.4 | 20.9 | 0.00 | 0.15 | 0.15 | 74 | 1001.8 |
| 20260509204521 | 20 | 270 | 4.8 | 12.9 | 0.00 | 0.15 | 0.15 | 74 | 1002.0 |
| 20260509203118 | 19 | 199 | 3.2 | 12.9 | 0.00 | 0.15 | 0.15 | 74 | 1002.2 |
| 20260509201520 | 18 | 304 | 3.2 | 11.3 | 0.13 | 0.15 | 0.15 | 74 | 1002.6 |
| 20260509200015 | 16 | 262 | 3.2 | 11.3 | 0.15 | 0.15 | 0.15 | 73 | 1002.5 |
| 20260509194511 | 15 | 219 | 0.0 | 4.8 | 0.15 | 0.15 | 0.15 | 72 | 1002.8 |
| 20260509193010 | 14 | 276 | 1.6 | 25.7 | 0.15 | 0.15 | 0.15 | 72 | 1002.8 |
| 20260509191507 | 18 | 274 | 14.5 | 24.1 | 0.03 | 0.03 | 0.03 | 73 | 1003.1 |
| 20260509190006 | 20 | 175 | 6.4 | 14.5 | 0.00 | 0.00 | 0.00 | 74 | 1001.7 |
| 20260509184502 | 20 | 205 | 4.8 | 14.5 | 0.00 | 0.00 | 0.00 | 74 | 1001.4 |
| 20260509181609 | 21 | 194 | 8.0 | 16.1 | 0.00 | 0.00 | 0.00 | 75 | 1001.5 |
| 20260509180053 | 20 | 268 | 4.8 | 19.3 | 0.00 | 0.00 | 0.00 | 75 | 1002.0 |
| 20260509174553 | 20 | 219 | 9.7 | 20.9 | 0.00 | 0.00 | 0.00 | 75 | 1002.1 |
| 20260509173052 | 20 | 180 | 6.4 | 20.9 | 0.00 | 0.00 | 0.00 | 75 | 1002.0 |
| 20260509171547 | 20 | 227 | 6.4 | 20.9 | 0.00 | 0.00 | 0.00 | 75 | 1002.3 |
| 20260509170042 | 19 | 238 | 9.7 | 22.5 | 0.00 | 0.00 | 0.00 | 76 | 1002.3 |